Terminal Aerodrome Forecast
Issued by NWS Tuscon, AZ

Home | Current Version | Previous Version | Text Only | Print | Product List | Glossary On
Versions: 1 2 3 4 5 6 7 8 9 10 11 12 13
134
FTUS45 KTWC 102340
TAFDUG
TAF
KDUG 102340Z 1100/1124 24005KT P6SM SKC
     FM110200 35008KT P6SM SCT250
     FM111000 VRB04KT P6SM BKN250
     FM112000 21006KT P6SM SKC=

USA.gov is the U.S. government's official web portal to all federal, state and local government web resources and services.